Terminal Aerodrome Forecast
Issued by NWS

Home | Current Version | Previous Version | Text Only | Print | Product List | Glossary On
Versions: 1 2 3 4 5 6 7 8 9 10 11 12 13 14 15 16 17 18
000
FTUS46 KMTR 220700 AAA
TAFMRY
TAF AMD
KMRY 220728Z 2207/2306 18004KT P6SM SCT180
     FM220900 VRB03KT P6SM BKN008 OVC015
     FM221600 32003KT P6SM SCT015 BKN200
     FM230300 VRB03KT P6SM SCT020=

USA.gov is the U.S. government's official web portal to all federal, state and local government web resources and services.